createdAt,value
2018-07-23T00:01:52.470Z,72.20
2018-07-23T00:04:20.685Z,71.90
2018-07-23T00:06:48.933Z,71.80
2018-07-23T00:09:17.207Z,71.90
2018-07-23T00:11:45.405Z,71.70
2018-07-23T00:14:13.634Z,71.40
2018-07-23T00:16:41.889Z,71.30
2018-07-23T00:19:10.108Z,71.30
2018-07-23T00:21:38.334Z,71.30
2018-07-23T00:24:06.550Z,71.30
2018-07-23T00:26:34.770Z,71.50
2018-07-23T00:29:02.978Z,71.30
2018-07-23T00:31:31.210Z,71.20
2018-07-23T00:33:59.421Z,71.00
2018-07-23T00:36:27.632Z,70.90
2018-07-23T00:38:55.837Z,70.80
2018-07-23T00:41:24.036Z,70.80
2018-07-23T00:43:52.253Z,70.80
2018-07-23T00:46:20.647Z,70.80
2018-07-23T00:48:48.862Z,70.80
2018-07-23T00:51:17.065Z,70.80
2018-07-23T00:53:45.326Z,70.90
2018-07-23T00:56:13.560Z,70.80
2018-07-23T00:58:41.785Z,70.70
2018-07-23T01:01:10.007Z,70.70
2018-07-23T01:03:38.224Z,71.00
2018-07-23T01:06:06.450Z,70.90
2018-07-23T01:08:34.945Z,71.00
2018-07-23T01:11:03.156Z,70.90
2018-07-23T01:13:31.387Z,70.90
2018-07-23T01:15:59.595Z,70.90
2018-07-23T01:18:27.854Z,70.80
2018-07-23T01:20:56.082Z,70.70
2018-07-23T01:23:24.297Z,70.60
2018-07-23T01:25:52.497Z,70.70
2018-07-23T01:28:20.714Z,70.70
2018-07-23T01:30:48.940Z,70.70
2018-07-23T01:33:17.164Z,70.70
2018-07-23T01:35:45.377Z,70.70
2018-07-23T01:38:13.593Z,70.60
2018-07-23T01:40:41.801Z,70.60
2018-07-23T01:43:10.053Z,70.60
2018-07-23T01:45:38.257Z,70.60
2018-07-23T01:48:06.501Z,70.60
2018-07-23T01:50:34.710Z,70.50
2018-07-23T01:53:02.919Z,70.60
2018-07-23T01:55:31.190Z,70.60
2018-07-23T01:57:59.398Z,70.60
2018-07-23T02:00:27.618Z,70.50
2018-07-23T02:02:55.826Z,70.40
2018-07-23T02:05:24.085Z,70.60
2018-07-23T02:07:52.332Z,70.80
2018-07-23T02:10:20.561Z,70.80
2018-07-23T02:12:48.769Z,70.80
2018-07-23T02:15:17.141Z,70.80
2018-07-23T02:17:45.359Z,70.90
2018-07-23T02:20:13.638Z,71.00
2018-07-23T02:22:41.841Z,71.10
2018-07-23T02:25:10.052Z,71.10
2018-07-23T02:27:38.256Z,71.30
2018-07-23T02:30:06.489Z,71.40
2018-07-23T02:32:34.706Z,71.50
2018-07-23T02:35:02.956Z,71.60
2018-07-23T02:37:31.162Z,71.50
2018-07-23T02:39:59.374Z,71.70
2018-07-23T02:42:27.607Z,71.70
2018-07-23T02:44:55.801Z,71.70
2018-07-23T02:47:24.005Z,71.80
2018-07-23T02:49:52.210Z,71.80
2018-07-23T02:52:20.424Z,71.80
2018-07-23T02:54:48.653Z,71.70
2018-07-23T02:57:16.856Z,71.80
2018-07-23T02:59:45.121Z,71.80
2018-07-23T03:02:13.287Z,71.80
2018-07-23T03:04:41.541Z,71.80
2018-07-23T03:07:09.769Z,71.90
2018-07-23T03:09:37.999Z,71.80
2018-07-23T03:12:06.225Z,71.90
2018-07-23T03:14:34.428Z,71.80
2018-07-23T03:17:02.704Z,71.70
2018-07-23T03:21:59.018Z,71.80
2018-07-23T03:24:27.183Z,71.60
2018-07-23T03:26:55.421Z,71.70
2018-07-23T03:29:23.662Z,71.60
2018-07-23T03:34:19.889Z,71.50
2018-07-23T03:36:48.092Z,71.40
2018-07-23T03:39:16.310Z,71.30
2018-07-23T03:41:44.743Z,71.30
2018-07-23T03:44:12.954Z,71.20
2018-07-23T03:46:41.165Z,71.10
2018-07-23T03:49:09.386Z,71.10
2018-07-23T03:51:37.617Z,71.10
2018-07-23T03:54:07.125Z,70.90
2018-07-23T03:56:35.333Z,70.90
2018-07-23T03:59:03.594Z,70.80
2018-07-23T04:03:59.748Z,70.90
2018-07-23T04:06:28.004Z,70.80
2018-07-23T04:08:56.442Z,70.70
2018-07-23T04:11:24.646Z,70.80
2018-07-23T04:13:52.867Z,70.80
2018-07-23T04:16:21.071Z,70.80
2018-07-23T04:18:49.301Z,70.70
2018-07-23T04:21:17.507Z,70.60
2018-07-23T04:23:45.709Z,70.60
2018-07-23T04:26:14.161Z,70.70
2018-07-23T04:28:42.390Z,70.60
2018-07-23T04:31:10.662Z,70.60
2018-07-23T04:33:38.862Z,70.70
2018-07-23T04:36:07.185Z,70.70
2018-07-23T04:38:35.410Z,70.70
2018-07-23T04:41:03.630Z,70.80
2018-07-23T04:43:31.862Z,70.70
2018-07-23T04:46:00.081Z,70.60
2018-07-23T04:48:28.298Z,70.60
2018-07-23T04:50:56.518Z,70.60
2018-07-23T04:53:24.860Z,70.50
2018-07-23T04:55:53.232Z,70.50
2018-07-23T04:58:21.424Z,70.60
2018-07-23T05:00:49.914Z,70.60
2018-07-23T05:03:18.138Z,70.50
2018-07-23T05:05:46.361Z,70.40
2018-07-23T05:08:14.606Z,70.40
2018-07-23T05:10:42.824Z,70.40
2018-07-23T05:13:11.042Z,70.40
2018-07-23T05:15:39.252Z,70.30
2018-07-23T05:18:07.582Z,70.30
2018-07-23T05:20:35.813Z,71.00
2018-07-23T05:23:04.046Z,70.20
2018-07-23T05:25:32.247Z,70.20
2018-07-23T05:28:00.586Z,70.10
2018-07-23T05:30:28.851Z,70.10
2018-07-23T05:32:57.248Z,70.10
2018-07-23T05:35:25.667Z,70.00
2018-07-23T05:37:54.398Z,70.00
2018-07-23T05:40:22.605Z,70.00
2018-07-23T05:42:50.928Z,69.90
2018-07-23T05:45:19.197Z,69.90
2018-07-23T05:47:47.509Z,69.90
2018-07-23T05:50:15.983Z,69.80
2018-07-23T05:52:44.744Z,69.90
2018-07-23T05:55:13.331Z,69.80
2018-07-23T05:57:42.156Z,69.90
2018-07-23T06:00:10.736Z,70.00
2018-07-23T06:02:39.568Z,70.00
2018-07-23T06:05:08.629Z,70.10
2018-07-23T06:07:37.031Z,70.00
2018-07-23T06:10:05.730Z,69.60
2018-07-23T06:12:34.138Z,69.40
2018-07-23T06:15:02.497Z,69.40
2018-07-23T06:17:31.055Z,69.20
2018-07-23T06:19:59.926Z,68.90
2018-07-23T06:22:28.616Z,68.70
2018-07-23T06:24:56.860Z,68.50
2018-07-23T06:27:25.109Z,68.60
2018-07-23T06:29:53.389Z,68.70
2018-07-23T06:32:21.841Z,68.50
2018-07-23T06:37:18.108Z,68.60
2018-07-23T06:39:46.814Z,68.30
2018-07-23T06:42:15.152Z,68.40
2018-07-23T06:44:44.550Z,68.40
2018-07-23T06:47:13.246Z,68.40
2018-07-23T06:49:42.561Z,68.40
2018-07-23T06:52:11.147Z,68.30
2018-07-23T06:54:40.044Z,68.20
2018-07-23T06:57:08.304Z,68.30
2018-07-23T06:59:36.990Z,68.30
2018-07-23T07:02:05.230Z,68.40
2018-07-23T07:04:33.442Z,68.30
2018-07-23T07:07:02.705Z,68.10
2018-07-23T07:09:31.726Z,68.00
2018-07-23T07:12:00.385Z,67.80
2018-07-23T07:14:28.598Z,67.70
2018-07-23T07:16:56.873Z,67.60
2018-07-23T07:19:25.677Z,67.50
2018-07-23T07:21:54.519Z,67.10
2018-07-23T07:24:22.933Z,67.50
2018-07-23T07:26:51.699Z,66.70
2018-07-23T07:29:21.024Z,66.70
2018-07-23T07:31:49.486Z,66.40
2018-07-23T07:34:18.233Z,66.30
2018-07-23T07:36:46.964Z,66.30
2018-07-23T07:39:15.306Z,66.30
2018-07-23T07:41:43.645Z,66.30
2018-07-23T07:44:12.108Z,66.20
2018-07-23T07:46:41.064Z,66.00
2018-07-23T07:49:10.190Z,65.80
2018-07-23T07:51:38.693Z,65.70
2018-07-23T07:54:07.557Z,65.50
2018-07-23T07:56:36.214Z,65.20
2018-07-23T07:59:04.640Z,65.00
2018-07-23T08:01:33.232Z,64.90
2018-07-23T08:04:01.454Z,64.50
2018-07-23T08:06:29.709Z,64.30
2018-07-23T08:08:57.956Z,63.90
2018-07-23T08:11:26.725Z,63.60
2018-07-23T08:13:55.519Z,63.30
2018-07-23T08:16:24.259Z,63.10
2018-07-23T08:18:52.878Z,62.90
2018-07-23T08:21:21.908Z,62.90
2018-07-23T08:23:50.395Z,62.90
2018-07-23T08:26:18.841Z,62.40
2018-07-23T08:28:47.294Z,62.10
2018-07-23T08:33:43.526Z,61.80
2018-07-23T08:36:11.733Z,61.50
2018-07-23T08:38:39.998Z,61.20
2018-07-23T08:41:08.221Z,60.70
2018-07-23T08:43:36.414Z,60.40
2018-07-23T08:46:04.861Z,60.30
2018-07-23T08:48:33.219Z,60.10
2018-07-23T08:51:01.439Z,60.00
2018-07-23T08:53:29.636Z,59.90
2018-07-23T08:55:57.889Z,59.80
2018-07-23T08:58:26.159Z,59.40
2018-07-23T09:00:54.545Z,59.00
2018-07-23T09:03:22.745Z,58.70
2018-07-23T09:05:50.997Z,58.50
2018-07-23T09:08:19.212Z,58.40
2018-07-23T09:10:47.772Z,58.40
2018-07-23T09:13:16.026Z,58.40
2018-07-23T09:15:44.243Z,58.40
2018-07-23T09:18:12.493Z,58.20
2018-07-23T09:20:40.720Z,58.20
2018-07-23T09:23:08.985Z,58.20
2018-07-23T09:25:42.573Z,58.10
2018-07-23T09:28:10.874Z,57.90
2018-07-23T09:30:44.625Z,58.00
2018-07-23T09:33:12.828Z,57.70
2018-07-23T09:35:41.105Z,57.50
2018-07-23T09:38:11.043Z,57.40
2018-07-23T09:40:39.314Z,57.20
2018-07-23T09:43:07.671Z,57.20
2018-07-23T09:45:35.879Z,57.10
2018-07-23T09:48:04.209Z,57.00
2018-07-23T09:50:32.617Z,56.50
2018-07-23T09:53:00.902Z,56.10
2018-07-23T09:55:29.153Z,56.00
2018-07-23T09:57:57.377Z,55.60
2018-07-23T10:00:30.882Z,55.30
2018-07-23T10:02:59.193Z,55.20
2018-07-23T10:05:27.380Z,54.80
2018-07-23T10:07:55.607Z,54.40
2018-07-23T10:10:23.859Z,53.90
2018-07-23T10:12:52.334Z,53.60
2018-07-23T10:15:20.596Z,53.20
2018-07-23T10:17:48.826Z,53.00
2018-07-23T10:20:17.064Z,53.10
2018-07-23T10:22:45.326Z,52.80
2018-07-23T10:25:13.540Z,52.80
2018-07-23T10:27:41.754Z,52.40
2018-07-23T10:30:10.315Z,51.90
2018-07-23T10:32:38.590Z,51.40
2018-07-23T10:35:06.942Z,51.00
2018-07-23T10:37:35.150Z,50.70
2018-07-23T10:40:03.573Z,50.70
2018-07-23T10:42:31.965Z,50.80
2018-07-23T10:45:00.177Z,50.90
2018-07-23T10:47:28.614Z,50.60
2018-07-23T10:49:56.885Z,50.50
2018-07-23T10:52:25.093Z,51.10
2018-07-23T10:54:53.312Z,50.50
2018-07-23T10:57:21.530Z,50.30
2018-07-23T10:59:49.815Z,50.00
2018-07-23T11:02:18.026Z,50.10
2018-07-23T11:04:46.233Z,49.60
2018-07-23T11:07:14.456Z,49.50
2018-07-23T11:09:42.967Z,49.40
2018-07-23T11:12:11.397Z,49.20
2018-07-23T11:14:39.610Z,48.80
2018-07-23T11:17:07.805Z,48.90
2018-07-23T11:19:36.015Z,48.00
2018-07-23T11:22:04.297Z,47.50
2018-07-23T11:24:32.669Z,47.20
2018-07-23T11:27:00.858Z,47.00
2018-07-23T11:29:29.093Z,46.90
2018-07-23T11:31:57.315Z,46.90
2018-07-23T11:34:25.526Z,46.90
2018-07-23T11:36:53.770Z,46.90
2018-07-23T11:39:22.218Z,46.70
2018-07-23T11:41:50.398Z,46.50
2018-07-23T11:44:18.596Z,46.50
2018-07-23T11:46:46.862Z,46.60
2018-07-23T11:49:15.062Z,46.50
2018-07-23T11:51:43.277Z,46.60
2018-07-23T11:54:11.489Z,46.80
2018-07-23T11:56:39.749Z,47.00
2018-07-23T11:59:07.945Z,47.00
2018-07-23T12:01:36.173Z,46.90
2018-07-23T12:04:10.403Z,46.70
2018-07-23T12:06:32.706Z,47.40
2018-07-23T12:09:00.913Z,46.90
2018-07-23T12:11:29.130Z,47.70
2018-07-23T12:13:57.367Z,47.70
2018-07-23T12:16:25.577Z,47.50
2018-07-23T12:18:53.878Z,47.20
2018-07-23T12:21:22.167Z,46.80
2018-07-23T12:23:50.405Z,46.40
2018-07-23T12:26:18.707Z,46.00
2018-07-23T12:28:46.902Z,45.80
2018-07-23T12:31:15.093Z,45.60
2018-07-23T12:33:43.452Z,45.70
2018-07-23T12:36:11.673Z,46.40
2018-07-23T12:38:39.901Z,45.70
2018-07-23T12:41:08.157Z,45.50
2018-07-23T12:43:36.374Z,45.30
2018-07-23T12:46:04.669Z,45.20
2018-07-23T12:48:32.897Z,44.90
2018-07-23T12:51:01.138Z,44.60
2018-07-23T12:53:29.342Z,44.00
2018-07-23T12:55:58.430Z,43.70
2018-07-23T12:58:26.764Z,43.60
2018-07-23T13:00:55.016Z,43.50
2018-07-23T13:03:23.230Z,43.30
2018-07-23T13:05:51.442Z,43.20
2018-07-23T13:08:19.655Z,43.30
2018-07-23T13:10:47.913Z,43.60
2018-07-23T13:13:16.124Z,43.60
2018-07-23T13:15:44.742Z,43.30
2018-07-23T13:18:12.978Z,43.30
2018-07-23T13:20:41.700Z,43.30
2018-07-23T13:23:10.719Z,43.50
2018-07-23T13:25:39.161Z,43.90
2018-07-23T13:30:35.866Z,44.50
2018-07-23T13:33:04.256Z,44.70
2018-07-23T13:35:32.916Z,45.00
2018-07-23T13:38:01.294Z,45.20
2018-07-23T13:40:29.458Z,45.20
2018-07-23T13:42:57.743Z,45.10
2018-07-23T13:45:26.041Z,44.90
2018-07-23T13:47:54.327Z,44.80
2018-07-23T13:50:22.810Z,44.60
2018-07-23T13:52:51.014Z,44.60
2018-07-23T13:55:19.214Z,44.50
2018-07-23T13:57:47.416Z,44.20
2018-07-23T14:00:15.646Z,44.00
2018-07-23T14:02:43.853Z,43.90
2018-07-23T14:05:12.101Z,43.90
2018-07-23T14:07:40.302Z,43.90
2018-07-23T14:10:08.533Z,44.10
2018-07-23T14:12:36.765Z,44.30
2018-07-23T14:15:05.451Z,44.60
2018-07-23T14:17:33.665Z,44.60
2018-07-23T14:20:01.861Z,44.60
2018-07-23T14:22:30.162Z,44.40
2018-07-23T14:24:58.310Z,44.20
2018-07-23T14:27:26.734Z,44.10
2018-07-23T14:29:55.069Z,44.10
2018-07-23T14:32:23.286Z,44.20
2018-07-23T14:37:19.517Z,44.50
2018-07-23T14:39:47.708Z,44.70
2018-07-23T14:42:15.921Z,44.70
2018-07-23T14:44:44.138Z,44.80
2018-07-23T14:47:12.358Z,44.80
2018-07-23T14:49:40.858Z,44.70
2018-07-23T14:52:09.031Z,44.50
2018-07-23T14:54:37.233Z,44.20
2018-07-23T14:57:05.534Z,44.10
2018-07-23T14:59:33.759Z,43.70
2018-07-23T15:02:01.978Z,43.50
2018-07-23T15:04:30.207Z,43.40
2018-07-23T15:06:58.413Z,43.30
2018-07-23T15:09:26.813Z,43.30
2018-07-23T15:11:55.031Z,43.30
2018-07-23T15:14:23.782Z,42.80
2018-07-23T15:16:51.984Z,42.20
2018-07-23T15:19:20.198Z,42.30
2018-07-23T15:21:48.411Z,42.60
2018-07-23T15:24:16.611Z,42.70
2018-07-23T15:26:44.842Z,42.80
2018-07-23T15:29:13.114Z,43.50
2018-07-23T15:31:41.310Z,44.60
2018-07-23T15:34:09.631Z,45.70
2018-07-23T15:36:37.848Z,45.50
2018-07-23T15:39:08.137Z,45.10
2018-07-23T15:41:36.552Z,45.00
2018-07-23T15:44:05.068Z,44.60
2018-07-23T15:46:33.370Z,44.40
2018-07-23T15:49:01.578Z,44.80
2018-07-23T15:51:29.825Z,45.20
2018-07-23T15:53:58.353Z,45.10
2018-07-23T15:56:26.573Z,45.40
2018-07-23T15:58:54.781Z,45.80
2018-07-23T16:01:23.052Z,45.40
2018-07-23T16:03:51.721Z,44.90
2018-07-23T16:06:19.941Z,44.80
2018-07-23T16:08:48.165Z,44.50
2018-07-23T16:11:16.379Z,44.50
2018-07-23T16:13:44.603Z,44.40
2018-07-23T16:16:12.845Z,44.20
2018-07-23T16:18:41.074Z,43.90
2018-07-23T16:21:09.293Z,43.60
2018-07-23T16:23:37.493Z,43.10
2018-07-23T16:28:34.065Z,42.00
2018-07-23T16:31:02.905Z,41.60
2018-07-23T16:33:31.115Z,41.40
2018-07-23T16:35:59.330Z,41.30
2018-07-23T16:38:27.526Z,40.90
2018-07-23T16:40:55.769Z,41.30
2018-07-23T16:43:24.000Z,40.50
2018-07-23T16:45:52.188Z,40.30
2018-07-23T16:48:20.390Z,40.20
2018-07-23T16:50:48.576Z,40.10
2018-07-23T16:53:16.811Z,40.00
2018-07-23T16:55:44.997Z,39.80
2018-07-23T16:58:13.205Z,39.80
2018-07-23T17:00:41.405Z,40.10
2018-07-23T17:03:09.661Z,40.30
2018-07-23T17:05:37.857Z,40.20
2018-07-23T17:08:06.069Z,39.90
2018-07-23T17:10:34.449Z,39.50
2018-07-23T17:13:02.745Z,39.20
2018-07-23T17:15:30.930Z,39.20
2018-07-23T17:17:59.263Z,39.10
2018-07-23T17:20:27.384Z,38.90
2018-07-23T17:22:55.589Z,38.80
2018-07-23T17:25:23.777Z,38.80
2018-07-23T17:27:52.000Z,38.80
2018-07-23T17:30:20.242Z,38.80
2018-07-23T17:32:48.453Z,38.80
2018-07-23T17:35:16.668Z,38.70
2018-07-23T17:37:44.856Z,38.60
2018-07-23T17:40:13.109Z,38.60
2018-07-23T17:42:41.320Z,38.80
2018-07-23T17:45:09.564Z,39.00
2018-07-23T17:47:37.740Z,39.10
2018-07-23T17:50:06.064Z,39.20
2018-07-23T17:52:34.317Z,39.50
2018-07-23T17:55:02.619Z,39.60
2018-07-23T17:57:30.798Z,39.60
2018-07-23T17:59:59.012Z,39.70
2018-07-23T18:02:27.204Z,39.90
2018-07-23T18:04:55.433Z,40.40
2018-07-23T18:07:23.642Z,40.20
2018-07-23T18:09:51.867Z,40.30
2018-07-23T18:12:20.123Z,40.30
2018-07-23T18:14:48.281Z,40.30
2018-07-23T18:17:16.528Z,40.30
2018-07-23T18:19:44.733Z,40.40
2018-07-23T18:22:12.925Z,40.50
2018-07-23T18:24:41.300Z,40.60
2018-07-23T18:27:09.580Z,40.70
2018-07-23T18:29:37.777Z,40.80
2018-07-23T18:32:06.211Z,40.90
2018-07-23T18:34:34.409Z,41.10
2018-07-23T18:37:02.626Z,41.30
2018-07-23T18:39:30.913Z,41.30
2018-07-23T18:41:59.149Z,41.40
2018-07-23T18:44:27.353Z,41.20
2018-07-23T18:46:55.569Z,41.90
2018-07-23T18:49:36.437Z,42.00
2018-07-23T18:52:04.681Z,42.30
2018-07-23T18:54:33.605Z,42.50
2018-07-23T18:57:03.017Z,42.60
2018-07-23T18:59:31.420Z,42.60
2018-07-23T19:02:00.405Z,42.70
2018-07-23T19:04:28.604Z,42.70
2018-07-23T19:06:56.828Z,42.80
2018-07-23T19:09:25.916Z,42.80
2018-07-23T19:14:22.932Z,43.10
2018-07-23T19:16:52.031Z,43.30
2018-07-23T19:19:20.253Z,43.60
2018-07-23T19:21:48.465Z,43.80
2018-07-23T19:24:16.684Z,44.10
2018-07-23T19:26:44.921Z,44.30
2018-07-23T19:29:13.135Z,44.60
2018-07-23T19:31:41.337Z,44.90
2018-07-23T19:34:09.541Z,45.20
2018-07-23T19:36:37.794Z,45.50
2018-07-23T19:39:08.626Z,45.80
2018-07-23T19:41:37.181Z,46.20
2018-07-23T19:44:05.569Z,46.50
2018-07-23T19:46:33.768Z,46.70
2018-07-23T19:49:01.977Z,46.90
2018-07-23T19:51:30.188Z,47.20
2018-07-23T19:53:58.421Z,47.60
2018-07-23T19:56:26.624Z,48.50
2018-07-23T19:58:54.827Z,48.30
2018-07-23T20:01:23.033Z,48.60
2018-07-23T20:03:51.244Z,48.90
2018-07-23T20:06:22.626Z,49.20
2018-07-23T20:08:51.918Z,49.40
2018-07-23T20:13:48.678Z,50.10
2018-07-23T20:16:17.421Z,50.20
2018-07-23T20:18:45.659Z,50.30
2018-07-23T20:21:14.232Z,50.40
2018-07-23T20:23:42.650Z,50.60
2018-07-23T20:26:10.878Z,50.70
2018-07-23T20:28:39.261Z,50.80
2018-07-23T20:31:07.673Z,51.00
2018-07-23T20:33:36.130Z,51.10
2018-07-23T20:36:04.918Z,51.20
2018-07-23T20:38:33.625Z,51.50
2018-07-23T20:41:01.925Z,51.80
2018-07-23T20:43:30.979Z,52.10
2018-07-23T20:45:59.566Z,52.40
2018-07-23T20:48:27.765Z,53.20
2018-07-23T20:50:56.781Z,52.80
2018-07-23T20:53:24.969Z,53.00
2018-07-23T20:55:53.225Z,53.20
2018-07-23T20:58:21.954Z,53.40
2018-07-23T21:00:50.173Z,53.60
2018-07-23T21:03:18.400Z,53.70
2018-07-23T21:05:46.659Z,53.80
2018-07-23T21:08:14.881Z,53.80
2018-07-23T21:10:43.101Z,53.90
2018-07-23T21:13:11.308Z,53.90
2018-07-23T21:15:39.547Z,53.90
2018-07-23T21:18:08.070Z,54.00
2018-07-23T21:20:36.278Z,54.20
2018-07-23T21:23:04.488Z,54.40
2018-07-23T21:25:32.677Z,54.50
2018-07-23T21:28:00.940Z,55.30
2018-07-23T21:32:57.158Z,55.10
2018-07-23T21:35:25.348Z,55.00
2018-07-23T21:37:53.573Z,55.00
2018-07-23T21:40:21.809Z,55.20
2018-07-23T21:42:50.014Z,55.50
2018-07-23T21:45:18.233Z,55.70
2018-07-23T21:47:46.442Z,55.90
2018-07-23T21:50:14.689Z,56.00
2018-07-23T21:52:42.900Z,56.20
2018-07-23T21:55:11.345Z,56.40
2018-07-23T21:57:39.549Z,56.60
2018-07-23T22:00:10.714Z,56.70
2018-07-23T22:02:38.977Z,56.80
2018-07-23T22:05:07.466Z,57.00
2018-07-23T22:07:35.716Z,57.10
2018-07-23T22:10:04.601Z,57.30
2018-07-23T22:12:32.797Z,57.50
2018-07-23T22:15:01.000Z,57.50
2018-07-23T22:17:29.213Z,57.70
2018-07-23T22:19:57.477Z,57.80
2018-07-23T22:22:25.717Z,57.90
2018-07-23T22:24:54.190Z,57.90
2018-07-23T22:27:22.397Z,57.90
2018-07-23T22:29:50.781Z,58.10
2018-07-23T22:32:19.314Z,58.20
2018-07-23T22:34:47.817Z,58.40
2018-07-23T22:37:16.018Z,58.50
2018-07-23T22:39:44.213Z,58.70
2018-07-23T22:42:12.575Z,59.40
2018-07-23T22:44:40.705Z,59.00
2018-07-23T22:47:09.148Z,59.00
2018-07-23T22:49:37.349Z,59.00
2018-07-23T22:52:05.560Z,59.10
2018-07-23T22:54:33.773Z,59.20
2018-07-23T22:57:02.011Z,59.30
2018-07-23T22:59:30.201Z,59.40
2018-07-23T23:01:58.405Z,59.70
2018-07-23T23:06:54.581Z,60.00
2018-07-23T23:09:22.785Z,60.00
2018-07-23T23:11:51.003Z,59.90
2018-07-23T23:16:47.166Z,59.80
2018-07-23T23:19:15.621Z,59.90
2018-07-23T23:21:43.875Z,59.90
2018-07-23T23:24:12.060Z,59.80
2018-07-23T23:26:40.277Z,59.80
2018-07-23T23:29:08.486Z,59.90
2018-07-23T23:31:36.862Z,59.90
2018-07-23T23:34:05.241Z,59.90
2018-07-23T23:36:33.442Z,60.10
2018-07-23T23:39:01.658Z,60.10
2018-07-23T23:41:29.865Z,60.40
2018-07-23T23:43:58.121Z,60.30
2018-07-23T23:46:26.520Z,60.40
2018-07-23T23:48:54.729Z,60.40
2018-07-23T23:51:22.945Z,60.40
2018-07-23T23:53:51.158Z,60.40
2018-07-23T23:56:19.392Z,60.60
2018-07-23T23:58:47.613Z,60.60
